• Join FlightAware (Why Join?)
  • Login
  • US Flag 
07:26PM EDT


 

Airport Tracker/Info


-or-


 

Live Flight TrackerFlight Track Log ✈ N121JM ✈ 31-May-2014 ✈ KACY - KBED

Flight Track Log - Related Links

Times and Time Zones

All times are in EDT time to prevent confusion due to time zone crossing. See the N121JM flight status page for this flight to view local times or setup timezone preferences in your user account.

Time Position Orientation Groundspeed Altitude Reporting Facility
EDT Latitude Longitude Course Direction KTS MPH feet Rate Location/Type
02:55PM 39.4400 -74.5299 114° Southeast 205 236 2,100  Level FlightAware ADS-B (KWWD)
02:55PM 39.4345 -74.5059 100° East 213 245 3,200 3,120 Climbing FlightAware ADS-B (KWWD)
02:55PM 39.4332 -74.4786 85° East 228 262 4,200 3,000 Climbing FlightAware ADS-B (KWWD)
02:56PM 39.4365 -74.4564 74° East 237 273 5,000 3,060 Climbing FlightAware ADS-B (KWWD)
02:56PM 39.4449 -74.4265 70° East 234 269 6,200 3,120 Climbing FlightAware ADS-B (KWWD)
02:56PM 39.4542 -74.3989 67° East 245 282 7,300 3,360 Climbing FlightAware ADS-B (KWWD)
02:57PM 39.4646 -74.3715 63° Northeast 252 290 8,500 3,420 Climbing FlightAware ADS-B (KWWD)
02:57PM 39.4762 -74.3437 63° Northeast 257 296 9,600 2,520 Climbing FlightAware ADS-B (KWWD)
02:57PM 39.4944 -74.3011 62° Northeast 285 328 10,600 1,320 Climbing FlightAware ADS-B (KWWD)
02:58PM 39.5406 -74.1906 62° Northeast 348 400 11,700 2,100 Climbing FlightAware ADS-B (KWWD)
02:59PM 39.5624 -74.1331 65° Northeast 355 409 14,000 3,360 Climbing FlightAware ADS-B (KWWD)
03:00PM 39.5853 -74.0676 66° East 371 427 15,200 1,860 Climbing FlightAware ADS-B (KWWD)
03:00PM 39.6168 -73.9831 59° Northeast 385 443 16,300 1,620 Climbing FlightAware ADS-B (KWWD)
03:01PM 39.6584 -73.9156 47° Northeast 386 444 17,400 1,920 Climbing FlightAware ADS-B (KPHL)
03:01PM 39.6967 -73.8636 45° Northeast 385 443 18,500 1,980 Climbing FlightAware ADS-B (KPHL)
03:02PM 39.7283 -73.8282 38° Northeast 381 438 19,500 1,560 Climbing FlightAware ADS-B (KPHL)
03:02PM 39.7850 -73.7738 36° Northeast 380 437 20,200 960 Climbing FlightAware ADS-B (KWWD)
03:03PM 39.8427 -73.7200 37° Northeast 381 438 20,700 660 Climbing FlightAware ADS-B (KWWD)
03:04PM 39.8860 -73.6784 37° Northeast 382 440 21,000 240 Climbing FlightAware ADS-B (KWWD)
03:04PM 39.9308 -73.6339 38° Northeast 393 452 21,000  Level FlightAware ADS-B (KPHL)
03:05PM 39.9621 -73.6024 38° Northeast 391 450 21,000  Level FlightAware ADS-B (KPHL)
03:05PM 40.0388 -73.5260 37° Northeast 384 442 21,000  Level FlightAware ADS-B (KWWD)
03:06PM 40.0647 -73.5013 36° Northeast 391 450 21,000  Level FlightAware ADS-B (KSNC)
03:07PM 40.2073 -73.3654 37° Northeast 397 457 21,100  Climbing FlightAware ADS-B (KSNC)
03:08PM 40.2486 -73.3246 37° Northeast 398 458 21,000 -120 Descending FlightAware ADS-B (KSNC)
03:09PM 40.3654 -73.2097 37° Northeast 405 466 21,000  Level FlightAware ADS-B (KSNC)
03:10PM 40.4199 -73.1548 38° Northeast 408 470 21,000 60 Level FlightAware ADS-B (KSNC)
03:10PM 40.4664 -73.1078 38° Northeast 408 470 21,100  Climbing FlightAware ADS-B (KSNC)
03:11PM 40.5126 -73.0610 37° Northeast 407 468 21,000 -120 Descending FlightAware ADS-B (KSNC)
03:11PM 40.5777 -72.9974 37° Northeast 404 465 21,000  Level FlightAware ADS-B (KSNC)
03:12PM 40.6335 -72.9422 37° Northeast 403 464 21,000  Level FlightAware ADS-B (KSNC)
03:13PM 40.6968 -72.8784 38° Northeast 399 459 21,000  Level FlightAware ADS-B (KSNC)
03:13PM 40.7427 -72.8315 38° Northeast 401 461 21,000  Level FlightAware ADS-B (KSNC)
03:14PM 40.7869 -72.7864 37° Northeast 400 460 21,000 -180 Level FlightAware ADS-B (KSNC)
03:14PM 40.8448 -72.7294 37° Northeast 390 449 20,800 -600 Descending FlightAware ADS-B (KSNC)
03:15PM 40.8906 -72.6846 36° Northeast 382 440 20,300 -1,320 Descending FlightAware ADS-B (KSNC)
03:16PM 40.9595 -72.6165 38° Northeast 385 443 19,000 -1,440 Descending FlightAware ADS-B (KSNC)
03:17PM 41.0154 -72.5557 39° Northeast 379 436 18,100 -1,320 Descending FlightAware ADS-B (KSNC)
03:17PM 41.0606 -72.5087 38° Northeast 374 430 17,500 -900 Descending FlightAware ADS-B (KSNC)
03:18PM 41.0930 -72.4753 37° Northeast 369 425 17,200 -480 Descending FlightAware ADS-B (KSNC)
03:18PM 41.1528 -72.4152 38° Northeast 373 429 16,900 -300 Descending FlightAware ADS-B (KSNC)
03:19PM 41.2111 -72.3551 37° Northeast 373 429 16,800 -120 Descending FlightAware ADS-B (KSNC)
03:19PM 41.2544 -72.3201 26° Northeast 373 429 16,800  Level FlightAware ADS-B (KSNC)
03:20PM 41.3035 -72.2963 14° North 376 433 16,800  Level FlightAware ADS-B (KSNC)
03:20PM 41.3466 -72.2847 10° North 376 433 16,800  Level FlightAware ADS-B (KSNC)
03:21PM 41.4086 -72.2684 13° North 378 435 16,800  Level FlightAware ADS-B (KSNC)
03:22PM 41.4747 -72.2458 15° North 379 436 16,800  Level FlightAware ADS-B (KSNC)
03:22PM 41.5262 -72.2279 15° North 377 434 16,800 -300 Level FlightAware ADS-B (KSNC)
03:23PM 41.5776 -72.2088 16° North 377 434 16,500 -720 Descending FlightAware ADS-B (KSNC)
03:23PM 41.6236 -72.1919 15° North 374 430 16,100 -1,200 Descending FlightAware ADS-B (KSNC)
03:24PM 41.6665 -72.1769 15° North 369 425 15,300 -1,800 Descending FlightAware ADS-B (KSNC)
03:24PM 41.7543 -72.1450 14° North 364 419 13,700 -2,220 Descending FlightAware ADS-B (KSNC)
03:25PM 41.8100 -72.1272 12° North 356 410 12,400 -900 Descending FlightAware ADS-B (KSNC)
03:29PM 42.1326 -72.0001 45° Northeast 255 293 9,600 -1,140 Descending FlightAware ADS-B
03:31PM 42.2180 -71.9034 37° Northeast 245 282 6,100 -1,800 Descending FlightAware ADS-B
03:32PM 42.2435 -71.8782 41° Northeast 232 267 4,700 -600 Descending FlightAware ADS-B
03:33PM 42.3434 -71.7730 30° Northeast 195 224 4,700 -120 Level FlightAware ADS-B
03:34PM 42.3938 -71.7315 45° Northeast 204 235 4,500 -420 Descending FlightAware ADS-B
03:35PM 42.3815 -71.7433 56° Northeast 208 239 4,100 -840 Descending FlightAware ADS-B
03:35PM 42.4291 -71.6684 60° Northeast 204 235 3,700 -900 Descending FlightAware ADS-B (KASH)
03:35PM 42.4384 -71.6483 60° Northeast 203 234 3,400 -1,020 Descending FlightAware ADS-B (KASH)
03:36PM 42.4477 -71.6284 57° Northeast 204 235 3,100 -840 Descending FlightAware ADS-B
03:36PM 42.4613 -71.6005 56° Northeast 200 230 2,800 -360 Descending FlightAware ADS-B (KASH)
03:37PM 42.4745 -71.5696 67° East 203 234 2,800 -300 Level FlightAware ADS-B
03:37PM 42.4797 -71.5456 76° East 194 223 2,600 -540 Descending FlightAware ADS-B (KASH)
03:37PM 42.4825 -71.5279 79° East 180 207 2,500 -420 Descending FlightAware ADS-B (KASH)
03:38PM 42.4844 -71.5124 83° East 162 186 2,400 -660 Descending FlightAware ADS-B (KASH)
03:38PM 42.4855 -71.4984 88° East 163 188 2,200 -660 Descending FlightAware ADS-B (KASH)
03:38PM 42.4858 -71.4838 91° East 159 183 2,100 -420 Descending FlightAware ADS-B (KASH)
03:38PM 42.4857 -71.4688 91° East 156 180 2,000 -600 Descending FlightAware ADS-B (KASH)
03:38PM 42.4854 -71.4539 91° East 168 193 1,800 -480 Descending FlightAware ADS-B (KASH)
03:39PM 42.4822 -71.4119 91° East 162 186 1,600 -480 Descending Boston Center
03:40PM 42.4775 -71.3533 96° East 162 186 1,000 -600 Descending Boston Center
03:41PM 42.4717 -71.2981 98° East 161 185 400 -600 Descending Boston Center
03:43PM 42.4667 -71.2833 66° East  Level FlightAware Approximate